sensor_id;sensor_type;location;lat;lon;timestamp;P1;durP1;ratioP1;P2;durP2;ratioP2
49296;SDS011;35163;48.878;18.040;2023-04-01T00:01:48;7.93;;;3.60;;
49296;SDS011;35163;48.878;18.040;2023-04-01T00:04:15;9.23;;;4.00;;
49296;SDS011;35163;48.878;18.040;2023-04-01T00:06:42;9.20;;;3.97;;
49296;SDS011;35163;48.878;18.040;2023-04-01T00:09:08;10.27;;;3.33;;
49296;SDS011;35163;48.878;18.040;2023-04-01T00:11:35;9.25;;;3.58;;
49296;SDS011;35163;48.878;18.040;2023-04-01T00:14:04;8.18;;;3.75;;
49296;SDS011;35163;48.878;18.040;2023-04-01T00:16:32;8.18;;;3.50;;
49296;SDS011;35163;48.878;18.040;2023-04-01T00:19:01;12.02;;;4.25;;
49296;SDS011;35163;48.878;18.040;2023-04-01T00:21:29;6.70;;;2.97;;
49296;SDS011;35163;48.878;18.040;2023-04-01T00:23:56;8.40;;;3.42;;
49296;SDS011;35163;48.878;18.040;2023-04-01T00:26:22;6.65;;;3.15;;
49296;SDS011;35163;48.878;18.040;2023-04-01T00:28:50;7.43;;;3.53;;
49296;SDS011;35163;48.878;18.040;2023-04-01T00:31:17;7.68;;;3.45;;
49296;SDS011;35163;48.878;18.040;2023-04-01T00:33:44;9.65;;;3.70;;
49296;SDS011;35163;48.878;18.040;2023-04-01T00:36:16;7.93;;;2.83;;
49296;SDS011;35163;48.878;18.040;2023-04-01T00:38:44;7.53;;;3.58;;
49296;SDS011;35163;48.878;18.040;2023-04-01T00:41:12;7.85;;;3.40;;
49296;SDS011;35163;48.878;18.040;2023-04-01T00:43:42;10.35;;;3.28;;
49296;SDS011;35163;48.878;18.040;2023-04-01T00:46:10;11.55;;;3.60;;
49296;SDS011;35163;48.878;18.040;2023-04-01T00:48:41;7.85;;;3.80;;
49296;SDS011;35163;48.878;18.040;2023-04-01T00:51:20;7.15;;;3.03;;
49296;SDS011;35163;48.878;18.040;2023-04-01T00:53:50;9.15;;;3.42;;
49296;SDS011;35163;48.878;18.040;2023-04-01T00:56:30;8.68;;;4.05;;
49296;SDS011;35163;48.878;18.040;2023-04-01T00:59:02;10.02;;;3.78;;
49296;SDS011;35163;48.878;18.040;2023-04-01T01:01:34;13.70;;;5.30;;
49296;SDS011;35163;48.878;18.040;2023-04-01T01:04:02;13.25;;;6.70;;
49296;SDS011;35163;48.878;18.040;2023-04-01T01:12:07;9.75;;;5.10;;
49296;SDS011;35163;48.878;18.040;2023-04-01T01:37:46;9.48;;;3.92;;
49296;SDS011;35163;48.878;18.040;2023-04-01T01:40:16;9.27;;;4.32;;
49296;SDS011;35163;48.878;18.040;2023-04-01T01:42:44;8.52;;;3.38;;
49296;SDS011;35163;48.878;18.040;2023-04-01T01:45:15;8.00;;;3.67;;
49296;SDS011;35163;48.878;18.040;2023-04-01T01:47:46;7.60;;;3.30;;
49296;SDS011;35163;48.878;18.040;2023-04-01T01:50:18;14.18;;;3.60;;
49296;SDS011;35163;48.878;18.040;2023-04-01T01:52:46;13.50;;;3.75;;
49296;SDS011;35163;48.878;18.040;2023-04-01T01:58:14;9.63;;;3.65;;
49296;SDS011;35163;48.878;18.040;2023-04-01T02:00:53;7.30;;;3.67;;
49296;SDS011;35163;48.878;18.040;2023-04-01T02:03:23;6.18;;;3.13;;
49296;SDS011;35163;48.878;18.040;2023-04-01T02:05:53;6.78;;;3.13;;
49296;SDS011;35163;48.878;18.040;2023-04-01T02:08:45;8.50;;;3.53;;
49296;SDS011;35163;48.878;18.040;2023-04-01T02:11:30;8.32;;;3.17;;
49296;SDS011;35163;48.878;18.040;2023-04-01T02:14:09;8.30;;;3.60;;
49296;SDS011;35163;48.878;18.040;2023-04-01T02:16:42;8.70;;;3.47;;
49296;SDS011;35163;48.878;18.040;2023-04-01T02:19:48;7.97;;;3.20;;
49296;SDS011;35163;48.878;18.040;2023-04-01T02:22:20;10.38;;;3.35;;
49296;SDS011;35163;48.878;18.040;2023-04-01T02:24:53;8.10;;;3.42;;
49296;SDS011;35163;48.878;18.040;2023-04-01T02:27:24;6.25;;;2.72;;
49296;SDS011;35163;48.878;18.040;2023-04-01T02:29:51;5.85;;;2.53;;
49296;SDS011;35163;48.878;18.040;2023-04-01T02:32:19;7.45;;;2.55;;
49296;SDS011;35163;48.878;18.040;2023-04-01T02:34:47;8.10;;;2.10;;
49296;SDS011;35163;48.878;18.040;2023-04-01T02:37:17;6.40;;;2.47;;
49296;SDS011;35163;48.878;18.040;2023-04-01T02:39:44;7.05;;;2.60;;
49296;SDS011;35163;48.878;18.040;2023-04-01T02:42:11;5.97;;;2.50;;
49296;SDS011;35163;48.878;18.040;2023-04-01T02:44:37;7.00;;;2.60;;
49296;SDS011;35163;48.878;18.040;2023-04-01T02:47:04;6.85;;;2.15;;
49296;SDS011;35163;48.878;18.040;2023-04-01T02:49:31;6.80;;;2.35;;
49296;SDS011;35163;48.878;18.040;2023-04-01T02:51:58;5.47;;;2.30;;
49296;SDS011;35163;48.878;18.040;2023-04-01T02:54:24;6.88;;;2.28;;
49296;SDS011;35163;48.878;18.040;2023-04-01T02:56:51;6.07;;;2.20;;
49296;SDS011;35163;48.878;18.040;2023-04-01T02:59:18;6.18;;;2.10;;
49296;SDS011;35163;48.878;18.040;2023-04-01T03:01:44;5.53;;;2.42;;
49296;SDS011;35163;48.878;18.040;2023-04-01T03:04:11;5.13;;;2.03;;
49296;SDS011;35163;48.878;18.040;2023-04-01T03:06:38;6.03;;;2.15;;
49296;SDS011;35163;48.878;18.040;2023-04-01T03:09:04;6.78;;;2.10;;
49296;SDS011;35163;48.878;18.040;2023-04-01T03:11:31;5.18;;;2.42;;
49296;SDS011;35163;48.878;18.040;2023-04-01T03:13:58;6.88;;;2.33;;
49296;SDS011;35163;48.878;18.040;2023-04-01T03:16:24;6.65;;;2.60;;
49296;SDS011;35163;48.878;18.040;2023-04-01T03:18:51;4.22;;;2.15;;
49296;SDS011;35163;48.878;18.040;2023-04-01T03:21:20;4.90;;;2.00;;
49296;SDS011;35163;48.878;18.040;2023-04-01T03:23:48;5.10;;;2.20;;
49296;SDS011;35163;48.878;18.040;2023-04-01T03:26:15;7.13;;;3.22;;
49296;SDS011;35163;48.878;18.040;2023-04-01T03:28:43;8.05;;;3.03;;
49296;SDS011;35163;48.878;18.040;2023-04-01T03:31:09;8.38;;;2.83;;
49296;SDS011;35163;48.878;18.040;2023-04-01T03:33:37;4.15;;;2.00;;
49296;SDS011;35163;48.878;18.040;2023-04-01T03:36:06;7.10;;;2.05;;
49296;SDS011;35163;48.878;18.040;2023-04-01T03:38:33;6.45;;;2.33;;
49296;SDS011;35163;48.878;18.040;2023-04-01T03:41:01;7.40;;;2.42;;
49296;SDS011;35163;48.878;18.040;2023-04-01T03:43:28;6.72;;;2.95;;
49296;SDS011;35163;48.878;18.040;2023-04-01T03:45:55;6.43;;;2.50;;
49296;SDS011;35163;48.878;18.040;2023-04-01T03:48:24;6.72;;;2.60;;
49296;SDS011;35163;48.878;18.040;2023-04-01T03:50:52;5.45;;;2.38;;
49296;SDS011;35163;48.878;18.040;2023-04-01T03:53:19;6.68;;;2.50;;
49296;SDS011;35163;48.878;18.040;2023-04-01T03:55:46;5.63;;;2.88;;
49296;SDS011;35163;48.878;18.040;2023-04-01T03:58:13;5.07;;;2.65;;
49296;SDS011;35163;48.878;18.040;2023-04-01T04:00:39;8.10;;;2.90;;
49296;SDS011;35163;48.878;18.040;2023-04-01T04:03:06;6.95;;;3.13;;
49296;SDS011;35163;48.878;18.040;2023-04-01T04:05:33;9.15;;;3.00;;
49296;SDS011;35163;48.878;18.040;2023-04-01T04:08:01;6.00;;;2.80;;
49296;SDS011;35163;48.878;18.040;2023-04-01T04:10:28;6.32;;;2.50;;
49296;SDS011;35163;48.878;18.040;2023-04-01T04:12:55;7.15;;;2.70;;
49296;SDS011;35163;48.878;18.040;2023-04-01T04:15:22;6.53;;;2.45;;
49296;SDS011;35163;48.878;18.040;2023-04-01T04:17:49;5.22;;;2.22;;
49296;SDS011;35163;48.878;18.040;2023-04-01T04:20:16;6.22;;;2.38;;
49296;SDS011;35163;48.878;18.040;2023-04-01T04:22:43;6.90;;;2.63;;
49296;SDS011;35163;48.878;18.040;2023-04-01T04:25:10;5.57;;;2.75;;
49296;SDS011;35163;48.878;18.040;2023-04-01T04:27:36;7.13;;;2.60;;
49296;SDS011;35163;48.878;18.040;2023-04-01T04:30:04;10.10;;;3.05;;
49296;SDS011;35163;48.878;18.040;2023-04-01T04:32:32;7.05;;;2.78;;
49296;SDS011;35163;48.878;18.040;2023-04-01T04:34:58;7.57;;;2.35;;
49296;SDS011;35163;48.878;18.040;2023-04-01T04:37:25;5.82;;;2.42;;
49296;SDS011;35163;48.878;18.040;2023-04-01T04:39:52;5.80;;;2.15;;
49296;SDS011;35163;48.878;18.040;2023-04-01T04:42:19;3.45;;;1.85;;
49296;SDS011;35163;48.878;18.040;2023-04-01T04:44:45;6.40;;;2.10;;
49296;SDS011;35163;48.878;18.040;2023-04-01T04:47:12;6.32;;;2.08;;
49296;SDS011;35163;48.878;18.040;2023-04-01T04:49:39;5.50;;;2.10;;
49296;SDS011;35163;48.878;18.040;2023-04-01T04:52:05;5.05;;;1.92;;
49296;SDS011;35163;48.878;18.040;2023-04-01T04:54:32;3.25;;;1.70;;
49296;SDS011;35163;48.878;18.040;2023-04-01T04:56:59;4.65;;;1.65;;
49296;SDS011;35163;48.878;18.040;2023-04-01T04:59:26;4.03;;;1.35;;
49296;SDS011;35163;48.878;18.040;2023-04-01T05:01:52;5.07;;;1.40;;
49296;SDS011;35163;48.878;18.040;2023-04-01T05:04:19;5.05;;;1.30;;
49296;SDS011;35163;48.878;18.040;2023-04-01T05:06:46;3.08;;;1.33;;
49296;SDS011;35163;48.878;18.040;2023-04-01T05:09:12;5.35;;;1.38;;
49296;SDS011;35163;48.878;18.040;2023-04-01T05:11:39;5.25;;;1.33;;
49296;SDS011;35163;48.878;18.040;2023-04-01T05:14:11;3.33;;;1.35;;
49296;SDS011;35163;48.878;18.040;2023-04-01T05:16:38;5.57;;;1.55;;
49296;SDS011;35163;48.878;18.040;2023-04-01T05:19:05;7.85;;;1.60;;
49296;SDS011;35163;48.878;18.040;2023-04-01T05:21:32;4.57;;;1.45;;
49296;SDS011;35163;48.878;18.040;2023-04-01T05:23:58;3.28;;;1.20;;
49296;SDS011;35163;48.878;18.040;2023-04-01T05:26:25;3.95;;;1.25;;
49296;SDS011;35163;48.878;18.040;2023-04-01T05:28:52;4.03;;;1.40;;
49296;SDS011;35163;48.878;18.040;2023-04-01T05:31:18;3.33;;;1.27;;
49296;SDS011;35163;48.878;18.040;2023-04-01T05:33:45;3.70;;;1.30;;
49296;SDS011;35163;48.878;18.040;2023-04-01T05:36:13;3.95;;;1.67;;
49296;SDS011;35163;48.878;18.040;2023-04-01T05:38:41;3.80;;;1.00;;
49296;SDS011;35163;48.878;18.040;2023-04-01T05:41:09;4.78;;;1.20;;
49296;SDS011;35163;48.878;18.040;2023-04-01T05:43:36;3.70;;;1.67;;
49296;SDS011;35163;48.878;18.040;2023-04-01T05:46:03;4.45;;;1.33;;
49296;SDS011;35163;48.878;18.040;2023-04-01T05:48:33;4.18;;;1.67;;
49296;SDS011;35163;48.878;18.040;2023-04-01T05:51:02;9.85;;;1.80;;
49296;SDS011;35163;48.878;18.040;2023-04-01T05:53:29;7.22;;;2.42;;
49296;SDS011;35163;48.878;18.040;2023-04-01T05:55:56;4.45;;;1.35;;
49296;SDS011;35163;48.878;18.040;2023-04-01T05:58:22;6.07;;;1.70;;
49296;SDS011;35163;48.878;18.040;2023-04-01T06:00:49;3.28;;;1.15;;
49296;SDS011;35163;48.878;18.040;2023-04-01T06:03:33;7.65;;;1.45;;
49296;SDS011;35163;48.878;18.040;2023-04-01T06:06:00;2.13;;;0.90;;
49296;SDS011;35163;48.878;18.040;2023-04-01T06:08:28;2.83;;;1.35;;
49296;SDS011;35163;48.878;18.040;2023-04-01T06:16:21;7.95;;;2.50;;
49296;SDS011;35163;48.878;18.040;2023-04-01T06:27:03;6.18;;;1.15;;
49296;SDS011;35163;48.878;18.040;2023-04-01T06:35:00;4.47;;;1.38;;
49296;SDS011;35163;48.878;18.040;2023-04-01T06:40:52;7.67;;;1.40;;
49296;SDS011;35163;48.878;18.040;2023-04-01T06:47:02;2.00;;;1.15;;
49296;SDS011;35163;48.878;18.040;2023-04-01T06:52:23;3.53;;;1.27;;
49296;SDS011;35163;48.878;18.040;2023-04-01T06:55:21;2.55;;;0.88;;
49296;SDS011;35163;48.878;18.040;2023-04-01T06:57:48;2.67;;;0.88;;
49296;SDS011;35163;48.878;18.040;2023-04-01T07:02:55;1.08;;;0.70;;
49296;SDS011;35163;48.878;18.040;2023-04-01T07:05:38;3.67;;;0.70;;
49296;SDS011;35163;48.878;18.040;2023-04-01T07:08:09;3.80;;;0.93;;
49296;SDS011;35163;48.878;18.040;2023-04-01T07:10:44;1.80;;;0.80;;
49296;SDS011;35163;48.878;18.040;2023-04-01T07:13:24;5.80;;;1.17;;
49296;SDS011;35163;48.878;18.040;2023-04-01T07:18:38;3.45;;;0.93;;
49296;SDS011;35163;48.878;18.040;2023-04-01T07:21:30;7.30;;;1.00;;
49296;SDS011;35163;48.878;18.040;2023-04-01T07:24:13;2.88;;;1.08;;
49296;SDS011;35163;48.878;18.040;2023-04-01T07:26:48;3.08;;;0.85;;
49296;SDS011;35163;48.878;18.040;2023-04-01T07:29:22;1.40;;;0.80;;
49296;SDS011;35163;48.878;18.040;2023-04-01T07:32:13;3.25;;;1.02;;
49296;SDS011;35163;48.878;18.040;2023-04-01T07:49:04;2.47;;;1.00;;
49296;SDS011;35163;48.878;18.040;2023-04-01T07:54:48;1.52;;;0.73;;
49296;SDS011;35163;48.878;18.040;2023-04-01T07:57:36;4.22;;;1.00;;
49296;SDS011;35163;48.878;18.040;2023-04-01T08:15:54;3.67;;;1.42;;
49296;SDS011;35163;48.878;18.040;2023-04-01T08:23:46;2.45;;;1.10;;
49296;SDS011;35163;48.878;18.040;2023-04-01T08:29:13;4.43;;;1.63;;
49296;SDS011;35163;48.878;18.040;2023-04-01T08:34:25;3.03;;;1.20;;
49296;SDS011;35163;48.878;18.040;2023-04-01T08:37:13;2.53;;;0.98;;
49296;SDS011;35163;48.878;18.040;2023-04-01T08:39:45;2.67;;;0.80;;
49296;SDS011;35163;48.878;18.040;2023-04-01T08:48:39;2.60;;;1.15;;
49296;SDS011;35163;48.878;18.040;2023-04-01T08:51:18;3.08;;;0.85;;
49296;SDS011;35163;48.878;18.040;2023-04-01T08:56:33;3.40;;;1.00;;
49296;SDS011;35163;48.878;18.040;2023-04-01T08:59:32;2.30;;;0.93;;
49296;SDS011;35163;48.878;18.040;2023-04-01T09:02:11;4.05;;;0.90;;
49296;SDS011;35163;48.878;18.040;2023-04-01T09:24:26;5.65;;;1.38;;
49296;SDS011;35163;48.878;18.040;2023-04-01T09:35:55;13.70;;;1.58;;
49296;SDS011;35163;48.878;18.040;2023-04-01T09:38:37;4.30;;;1.33;;
49296;SDS011;35163;48.878;18.040;2023-04-01T09:55:10;2.40;;;1.25;;
49296;SDS011;35163;48.878;18.040;2023-04-01T09:57:57;3.97;;;1.40;;
49296;SDS011;35163;48.878;18.040;2023-04-01T10:20:46;3.55;;;1.20;;
49296;SDS011;35163;48.878;18.040;2023-04-01T10:37:56;5.95;;;1.67;;
49296;SDS011;35163;48.878;18.040;2023-04-01T10:43:56;4.28;;;1.38;;
49296;SDS011;35163;48.878;18.040;2023-04-01T10:46:28;5.65;;;1.23;;
49296;SDS011;35163;48.878;18.040;2023-04-01T10:59:58;6.93;;;1.27;;
49296;SDS011;35163;48.878;18.040;2023-04-01T11:05:12;5.07;;;1.40;;
49296;SDS011;35163;48.878;18.040;2023-04-01T11:21:53;2.85;;;1.10;;
49296;SDS011;35163;48.878;18.040;2023-04-01T11:58:23;2.67;;;1.25;;
49296;SDS011;35163;48.878;18.040;2023-04-01T12:09:25;3.90;;;1.20;;
49296;SDS011;35163;48.878;18.040;2023-04-01T12:15:30;3.00;;;1.40;;
49296;SDS011;35163;48.878;18.040;2023-04-01T12:20:57;3.20;;;1.30;;
49296;SDS011;35163;48.878;18.040;2023-04-01T12:24:20;2.33;;;1.00;;
49296;SDS011;35163;48.878;18.040;2023-04-01T12:26:57;4.05;;;1.40;;
49296;SDS011;35163;48.878;18.040;2023-04-01T12:29:48;2.53;;;1.10;;
49296;SDS011;35163;48.878;18.040;2023-04-01T12:35:30;3.70;;;1.60;;
49296;SDS011;35163;48.878;18.040;2023-04-01T13:06:31;3.60;;;1.08;;
49296;SDS011;35163;48.878;18.040;2023-04-01T13:09:32;3.35;;;1.77;;
49296;SDS011;35163;48.878;18.040;2023-04-01T13:18:21;5.90;;;2.03;;
49296;SDS011;35163;48.878;18.040;2023-04-01T13:29:06;4.80;;;1.58;;
49296;SDS011;35163;48.878;18.040;2023-04-01T13:34:25;4.47;;;1.40;;
49296;SDS011;35163;48.878;18.040;2023-04-01T13:39:45;3.33;;;1.20;;
49296;SDS011;35163;48.878;18.040;2023-04-01T13:45:21;4.13;;;1.73;;
49296;SDS011;35163;48.878;18.040;2023-04-01T13:51:14;5.30;;;1.25;;
49296;SDS011;35163;48.878;18.040;2023-04-01T14:14:55;2.13;;;1.00;;
49296;SDS011;35163;48.878;18.040;2023-04-01T14:17:31;2.67;;;1.10;;
49296;SDS011;35163;48.878;18.040;2023-04-01T14:20:39;3.88;;;1.17;;
49296;SDS011;35163;48.878;18.040;2023-04-01T14:26:16;5.40;;;1.30;;
49296;SDS011;35163;48.878;18.040;2023-04-01T14:28:50;4.15;;;1.20;;
49296;SDS011;35163;48.878;18.040;2023-04-01T14:58:10;6.93;;;2.05;;
49296;SDS011;35163;48.878;18.040;2023-04-01T15:00:47;3.13;;;1.20;;
49296;SDS011;35163;48.878;18.040;2023-04-01T15:06:27;3.83;;;1.60;;
49296;SDS011;35163;48.878;18.040;2023-04-01T15:09:08;3.33;;;1.30;;
49296;SDS011;35163;48.878;18.040;2023-04-01T15:11:42;6.38;;;1.90;;
49296;SDS011;35163;48.878;18.040;2023-04-01T15:20:56;3.00;;;1.40;;
49296;SDS011;35163;48.878;18.040;2023-04-01T15:29:05;3.65;;;1.52;;
49296;SDS011;35163;48.878;18.040;2023-04-01T15:31:50;8.52;;;2.80;;
49296;SDS011;35163;48.878;18.040;2023-04-01T15:34:45;7.50;;;3.20;;
49296;SDS011;35163;48.878;18.040;2023-04-01T15:37:47;7.90;;;3.50;;
49296;SDS011;35163;48.878;18.040;2023-04-01T15:41:00;5.78;;;2.45;;
49296;SDS011;35163;48.878;18.040;2023-04-01T15:43:44;6.80;;;2.80;;
49296;SDS011;35163;48.878;18.040;2023-04-01T15:57:05;8.52;;;2.00;;
49296;SDS011;35163;48.878;18.040;2023-04-01T15:59:51;3.30;;;1.52;;
49296;SDS011;35163;48.878;18.040;2023-04-01T16:18:22;6.55;;;1.55;;
49296;SDS011;35163;48.878;18.040;2023-04-01T16:23:47;5.82;;;1.70;;
49296;SDS011;35163;48.878;18.040;2023-04-01T16:26:29;5.53;;;1.58;;
49296;SDS011;35163;48.878;18.040;2023-04-01T16:37:20;5.47;;;1.60;;
49296;SDS011;35163;48.878;18.040;2023-04-01T16:40:09;3.88;;;1.60;;
49296;SDS011;35163;48.878;18.040;2023-04-01T16:47:54;5.60;;;1.70;;
49296;SDS011;35163;48.878;18.040;2023-04-01T16:50:25;4.45;;;1.80;;
49296;SDS011;35163;48.878;18.040;2023-04-01T16:58:21;6.13;;;1.88;;
49296;SDS011;35163;48.878;18.040;2023-04-01T17:00:58;6.47;;;2.15;;
49296;SDS011;35163;48.878;18.040;2023-04-01T17:03:51;6.97;;;2.20;;
49296;SDS011;35163;48.878;18.040;2023-04-01T17:09:25;6.90;;;2.22;;
49296;SDS011;35163;48.878;18.040;2023-04-01T17:12:28;6.60;;;2.50;;
49296;SDS011;35163;48.878;18.040;2023-04-01T17:21:58;4.82;;;1.95;;
49296;SDS011;35163;48.878;18.040;2023-04-01T17:24:12;6.57;;;1.90;;
49296;SDS011;35163;48.878;18.040;2023-04-01T17:29:46;5.72;;;2.10;;
49296;SDS011;35163;48.878;18.040;2023-04-01T17:37:28;5.40;;;2.20;;
49296;SDS011;35163;48.878;18.040;2023-04-01T17:45:31;5.18;;;2.15;;
49296;SDS011;35163;48.878;18.040;2023-04-01T17:51:06;5.63;;;2.15;;
49296;SDS011;35163;48.878;18.040;2023-04-01T17:56:55;10.70;;;3.65;;
49296;SDS011;35163;48.878;18.040;2023-04-01T17:59:49;9.32;;;4.57;;
49296;SDS011;35163;48.878;18.040;2023-04-01T18:02:27;9.55;;;4.05;;
49296;SDS011;35163;48.878;18.040;2023-04-01T18:06:11;7.90;;;3.17;;
49296;SDS011;35163;48.878;18.040;2023-04-01T18:08:17;4.80;;;2.20;;
49296;SDS011;35163;48.878;18.040;2023-04-01T18:25:16;9.27;;;4.32;;
49296;SDS011;35163;48.878;18.040;2023-04-01T18:27:44;10.38;;;4.78;;
49296;SDS011;35163;48.878;18.040;2023-04-01T18:30:20;10.40;;;5.10;;
49296;SDS011;35163;48.878;18.040;2023-04-01T18:32:58;11.40;;;4.50;;
49296;SDS011;35163;48.878;18.040;2023-04-01T18:38:29;8.85;;;3.63;;
49296;SDS011;35163;48.878;18.040;2023-04-01T18:41:29;7.72;;;3.78;;
49296;SDS011;35163;48.878;18.040;2023-04-01T18:47:03;7.30;;;3.22;;
49296;SDS011;35163;48.878;18.040;2023-04-01T18:58:14;9.50;;;4.32;;
49296;SDS011;35163;48.878;18.040;2023-04-01T19:03:55;11.35;;;3.83;;
49296;SDS011;35163;48.878;18.040;2023-04-01T19:06:57;8.88;;;3.75;;
49296;SDS011;35163;48.878;18.040;2023-04-01T19:09:32;10.48;;;4.18;;
49296;SDS011;35163;48.878;18.040;2023-04-01T19:15:12;8.27;;;4.10;;
49296;SDS011;35163;48.878;18.040;2023-04-01T19:20:40;12.50;;;4.70;;
49296;SDS011;35163;48.878;18.040;2023-04-01T19:26:03;10.43;;;4.28;;
49296;SDS011;35163;48.878;18.040;2023-04-01T19:31:11;11.70;;;5.40;;
49296;SDS011;35163;48.878;18.040;2023-04-01T19:34:09;13.05;;;5.72;;
49296;SDS011;35163;48.878;18.040;2023-04-01T19:36:49;13.90;;;5.80;;
49296;SDS011;35163;48.878;18.040;2023-04-01T19:39:37;11.45;;;5.80;;
49296;SDS011;35163;48.878;18.040;2023-04-01T19:47:45;21.95;;;9.57;;
49296;SDS011;35163;48.878;18.040;2023-04-01T19:50:41;14.90;;;7.45;;
49296;SDS011;35163;48.878;18.040;2023-04-01T19:53:31;13.85;;;7.53;;
49296;SDS011;35163;48.878;18.040;2023-04-01T19:56:14;18.08;;;6.60;;
49296;SDS011;35163;48.878;18.040;2023-04-01T20:01:24;13.73;;;6.35;;
49296;SDS011;35163;48.878;18.040;2023-04-01T20:04:53;12.48;;;5.97;;
49296;SDS011;35163;48.878;18.040;2023-04-01T20:12:46;11.55;;;5.63;;
49296;SDS011;35163;48.878;18.040;2023-04-01T20:18:15;11.15;;;4.93;;
49296;SDS011;35163;48.878;18.040;2023-04-01T20:26:48;10.23;;;4.72;;
49296;SDS011;35163;48.878;18.040;2023-04-01T20:32:17;8.52;;;4.45;;
49296;SDS011;35163;48.878;18.040;2023-04-01T20:37:35;12.55;;;4.32;;
49296;SDS011;35163;48.878;18.040;2023-04-01T20:51:41;12.10;;;5.30;;
49296;SDS011;35163;48.878;18.040;2023-04-01T20:57:14;10.48;;;5.28;;
49296;SDS011;35163;48.878;18.040;2023-04-01T21:08:00;17.00;;;6.85;;
49296;SDS011;35163;48.878;18.040;2023-04-01T21:17:04;15.90;;;7.35;;
49296;SDS011;35163;48.878;18.040;2023-04-01T21:33:54;11.68;;;5.38;;
49296;SDS011;35163;48.878;18.040;2023-04-01T21:50:47;14.93;;;5.88;;
49296;SDS011;35163;48.878;18.040;2023-04-01T22:05:16;12.77;;;6.03;;
49296;SDS011;35163;48.878;18.040;2023-04-01T22:10:48;13.65;;;6.15;;
49296;SDS011;35163;48.878;18.040;2023-04-01T22:13:23;12.07;;;5.68;;
49296;SDS011;35163;48.878;18.040;2023-04-01T22:18:44;13.90;;;6.15;;
49296;SDS011;35163;48.878;18.040;2023-04-01T22:21:30;13.40;;;6.15;;
49296;SDS011;35163;48.878;18.040;2023-04-01T22:30:00;12.90;;;5.80;;
49296;SDS011;35163;48.878;18.040;2023-04-01T22:32:44;13.05;;;6.03;;
49296;SDS011;35163;48.878;18.040;2023-04-01T22:35:18;12.93;;;5.85;;
49296;SDS011;35163;48.878;18.040;2023-04-01T22:37:51;15.82;;;5.60;;
49296;SDS011;35163;48.878;18.040;2023-04-01T22:40:22;12.73;;;5.90;;
49296;SDS011;35163;48.878;18.040;2023-04-01T22:43:38;12.13;;;6.18;;
49296;SDS011;35163;48.878;18.040;2023-04-01T22:46:16;11.80;;;6.22;;
49296;SDS011;35163;48.878;18.040;2023-04-01T22:49:09;14.75;;;6.07;;
49296;SDS011;35163;48.878;18.040;2023-04-01T22:54:22;14.02;;;6.18;;
49296;SDS011;35163;48.878;18.040;2023-04-01T22:56:52;11.52;;;5.70;;
49296;SDS011;35163;48.878;18.040;2023-04-01T23:02:17;11.02;;;5.32;;
49296;SDS011;35163;48.878;18.040;2023-04-01T23:04:59;10.80;;;5.60;;
49296;SDS011;35163;48.878;18.040;2023-04-01T23:10:29;15.30;;;6.88;;
49296;SDS011;35163;48.878;18.040;2023-04-01T23:13:03;14.27;;;6.13;;
49296;SDS011;35163;48.878;18.040;2023-04-01T23:15:37;12.23;;;5.95;;
49296;SDS011;35163;48.878;18.040;2023-04-01T23:18:22;12.88;;;6.15;;
49296;SDS011;35163;48.878;18.040;2023-04-01T23:21:03;10.45;;;5.63;;
49296;SDS011;35163;48.878;18.040;2023-04-01T23:23:45;12.55;;;6.13;;
49296;SDS011;35163;48.878;18.040;2023-04-01T23:29:14;11.00;;;5.90;;
49296;SDS011;35163;48.878;18.040;2023-04-01T23:34:39;13.45;;;6.82;;
49296;SDS011;35163;48.878;18.040;2023-04-01T23:37:14;12.43;;;6.85;;
49296;SDS011;35163;48.878;18.040;2023-04-01T23:39:45;13.25;;;6.70;;
49296;SDS011;35163;48.878;18.040;2023-04-01T23:42:22;13.13;;;6.85;;
49296;SDS011;35163;48.878;18.040;2023-04-01T23:45:11;11.60;;;6.10;;
49296;SDS011;35163;48.878;18.040;2023-04-01T23:47:44;11.55;;;6.25;;
49296;SDS011;35163;48.878;18.040;2023-04-01T23:50:16;12.63;;;5.93;;
49296;SDS011;35163;48.878;18.040;2023-04-01T23:52:46;12.95;;;6.47;;
49296;SDS011;35163;48.878;18.040;2023-04-01T23:55:19;15.55;;;6.45;;
49296;SDS011;35163;48.878;18.040;2023-04-01T23:58:38;12.85;;;5.57;;
